Data for 08/28/2013

Time Sea-Level Adjusted Pressure Absolute Pressure Temperature Relative Humidity Dew Point   
(mb) (inHg) (mb) (inHg) (C) (F) (%) (C) (F)
00:05 1019 30.09 848 25.04 19.3 66.8 46 7.5 45.6
00:10 1019 30.09 848 25.04 19.4 67 45 7.5 45.4
00:15 1019 30.09 848 25.04 19.5 67.1 45 7.5 45.5
00:20 1019 30.09 848 25.04 19.6 67.3 45 7.6 45.6
00:25 1019 30.09 848 25.04 19.5 67.1 45 7.5 45.6
00:30 1019 30.09 848 25.04 19.6 67.3 45 7.4 45.3
00:35 1019 30.09 848 25.04 19.7 67.4 45 7.6 45.8
00:40 1019 30.09 848 25.04 19.5 67.1 46 7.7 45.8
00:45 1019 30.09 848 25.04 19.6 67.2 45 7.6 45.7
00:50 1019 30.09 848 25.04 19.5 67 47 7.9 46.2
00:55 1019 30.09 848 25.04 19.2 66.6 47 7.8 46.1
01:00 1019 30.09 848 25.04 19.3 66.7 46 7.4 45.3
01:05 1019 30.09 848 25.04 19.3 66.7 48 8 46.4
01:10 1019 30.09 848 25.04 18.9 66 48 7.8 46
01:15 1019 30.09 848 25.04 18.7 65.7 50 8.1 46.6
01:20 1019 30.09 848 25.04 18.7 65.6 48 7.6 45.7
01:25 1019 30.09 848 25.04 18.7 65.6 49 7.9 46.2
01:30 1019 30.09 848 25.04 18.3 64.9 52 8.4 47.2
01:35 1019 30.09 848 25.04 18.3 65 57 9.7 49.4
01:40 1019 30.09 848 25.04 18.4 65.1 50 7.9 46.3
01:45 1019 30.09 848 25.04 18.2 64.7 51 8 46.3
01:50 1019 30.09 848 25.04 18 64.4 52 8 46.4
01:55 1019 30.09 848 25.04 17.9 64.2 51 7.7 45.8
02:00 1019 30.09 848 25.04 18.1 64.5 51 7.8 46.1
02:05 1019 30.09 848 25.04 18.1 64.6 50 7.7 45.8
02:10 1019 30.09 848 25.04 18.3 64.9 50 7.8 46
02:15 1019 30.09 848 25.04 18.1 64.6 52 8.2 46.7
02:20 1019 30.09 848 25.04 17.6 63.7 53 8.1 46.5
02:25 1019 30.09 848 25.04 17.4 63.2 54 8 46.4
02:30 1019 30.09 848 25.04 17.3 63.1 54 7.9 46.2
02:35 1019 30.09 848 25.04 17.7 63.9 52 7.7 45.9
02:40 1019 30.09 848 25.04 17.8 64.1 51 7.7 45.8
02:45 1019 30.09 848 25.04 18.1 64.6 50 7.7 45.9
02:50 1019 30.09 848 25.04 18.2 64.7 50 7.8 46.1
02:55 1019 30.09 848 25.04 18.2 64.7 50 7.7 45.9
03:00 1019 30.09 848 25.04 18.3 65 49 7.5 45.5
03:05 1019 30.09 848 25.04 18.5 65.2 48 7.5 45.5
03:10 1019 30.09 848 25.04 18.3 64.9 51 8 46.4
03:15 1019 30.09 848 25.04 18 64.4 51 7.8 46
03:20 1019 30.09 848 25.04 18.1 64.6 50 7.6 45.7
03:25 1019 30.09 848 25.04 18 64.5 51 7.9 46.2
03:30 1019 30.09 848 25.04 17.5 63.4 55 8.3 46.9
03:35 1019 30.09 848 25.04 17 62.7 55 8.1 46.5
03:40 1019 30.09 848 25.04 16.9 62.4 55 7.8 46
03:45 1019 30.09 848 25.04 17.2 62.9 54 8 46.4
03:50 1019 30.09 848 25.04 17.2 62.9 54 7.8 46.1
03:55 1019 30.09 848 25.04 17.1 62.8 56 8.3 46.9
04:00 1019 30.09 848 25.04 17.1 62.7 52 7.4 45.3
04:05 1019 30.09 848 25.04 17.7 63.9 52 7.7 45.9
04:10 1019 30.09 848 25.04 17.8 64 52 7.8 46.1
04:15 1019 30.09 848 25.04 17.7 63.8 52 7.8 46
04:20 1019 30.09 848 25.04 17.5 63.6 53 8.1 46.5
04:25 1019 30.09 848 25.04 17.2 63 54 7.9 46.3
04:30 1019 30.09 848 25.04 17.1 62.8 54 7.9 46.1
04:35 1019 30.09 848 25.04 17.1 62.9 54 7.9 46.1
04:40 1019 30.09 848 25.04 17.1 62.8 53 7.7 45.8
04:45 1019 30.09 848 25.04 17.5 63.5 52 7.7 45.8
04:50 1019 30.09 848 25.04 17.6 63.6 52 7.7 45.9
04:55 1019 30.09 848 25.04 17.5 63.4 53 7.9 46.3
05:00 1019 30.09 848 25.04 17.1 62.8 54 8 46.3
05:05 1019 30.09 849 25.07 17 62.6 55 7.9 46.1
05:10 1019 30.09 849 25.07 16.9 62.5 55 7.8 46.1
05:15 1019 30.09 849 25.07 16.8 62.2 56 8 46.3
05:20 1019 30.09 849 25.07 16.5 61.7 56 7.9 46.3
05:25 1019 30.09 849 25.07 16.4 61.4 57 8 46.4
05:30 1019 30.09 849 25.07 16.2 61.1 58 8.1 46.5
05:35 1020 30.12 849 25.07 16 60.7 59 8 46.3
05:40 1020 30.12 849 25.07 16 60.8 58 7.9 46.2
05:45 1020 30.12 849 25.07 16.1 60.9 58 8 46.4
05:50 1020 30.12 849 25.07 16 60.8 58 7.9 46.3
05:55 1020 30.12 849 25.07 16 60.9 58 7.9 46.2
06:00 1020 30.12 849 25.07 16.2 61.2 57 7.8 46.1
06:05 1020 30.12 849 25.07 16.4 61.5 57 7.9 46.1
06:10 1020 30.12 849 25.07 16.5 61.6 57 8 46.4
06:15 1020 30.12 849 25.07 16.6 61.8 56 7.9 46.3
06:20 1020 30.12 849 25.07 16.6 61.9 57 8.3 46.9
06:25 1020 30.12 849 25.07 16.4 61.6 57 8 46.4
06:30 1020 30.12 849 25.07 16.6 61.8 57 8.1 46.5
06:35 1020 30.12 849 25.07 16.8 62.3 55 7.9 46.1
06:40 1020 30.12 849 25.07 17.4 63.2 53 7.9 46.2
06:45 1020 30.12 849 25.07 17.7 63.9 53 8.2 46.7
06:50 1020 30.12 849 25.07 17.5 63.4 55 8.6 47.4
06:55 1020 30.12 849 25.07 17 62.6 57 8.6 47.5
07:00 1020 30.12 849 25.07 17 62.6 56 8.4 47.1
07:05 1020 30.12 849 25.07 17.6 63.7 55 8.6 47.5
07:10 1020 30.12 849 25.07 18.2 64.8 54 8.8 47.9
07:15 1020 30.12 849 25.07 18.7 65.7 51 8.5 47.3
07:20 1020 30.12 849 25.07 19.2 66.5 50 8.5 47.2
07:25 1020 30.12 849 25.07 19.4 67 50 8.9 48
07:30 1020 30.12 849 25.07 19.5 67.1 51 9.2 48.6
07:35 1020 30.12 849 25.07 19.8 67.6 50 9.2 48.6
07:40 1020 30.12 849 25.07 19.8 67.6 50 9.3 48.8
07:45 1020 30.12 849 25.07 19.6 67.2 49 8.7 47.6
07:50 1020 30.12 849 25.07 19.8 67.6 48 8.7 47.7
07:55 1020 30.12 849 25.07 20.1 68.3 48 8.8 47.9
08:00 1020 30.12 849 25.07 20.5 68.8 48 9.1 48.3
08:05 1020 30.12 849 25.07 20.9 69.6 46 8.9 48.1
08:10 1020 30.12 849 25.07 21.4 70.5 44 8.7 47.7
08:15 1020 30.12 849 25.07 21.9 71.4 44 9.1 48.4
08:20 1020 30.12 849 25.07 22.3 72.2 42 9 48.3
08:25 1020 30.12 849 25.07 23.1 73.6 40 8.8 47.8
08:30 1020 30.12 849 25.07 22.9 73.2 46 10.7 51.3
08:35 1020 30.12 849 25.07 23.2 73.7 43 10 50
08:40 1020 30.12 849 25.07 23.3 74 42 9.8 49.6
08:45 1020 30.12 849 25.07 23.6 74.5 39 9.1 48.5
08:50 1019 30.09 849 25.07 23.9 74.9 37 8.7 47.6
08:55 1019 30.09 849 25.07 23.9 74.9 37 8.5 47.3
09:00 1019 30.09 849 25.07 24.8 76.7 33 7.9 46.2
09:05 1020 30.12 849 25.07 25.1 77.1 35 8.6 47.5
09:10 1019 30.09 849 25.07 25.3 77.5 33 8.1 46.6
09:15 1019 30.09 849 25.07 25.8 78.5 32 8.1 46.6
09:20 1019 30.09 849 25.07 26.6 79.8 31 8.4 47
09:25 1020 30.12 849 25.07 27.1 80.8 31 8.6 47.5
09:30 1020 30.12 849 25.07 27.2 80.9 32 9.2 48.5
09:35 1020 30.12 849 25.07 27.3 81.1 30 8.6 47.5
09:40 1020 30.12 849 25.07 27.5 81.6 32 9.8 49.7
09:45 1019 30.09 849 25.07 26.4 79.6 32 8.9 48
09:50 1019 30.09 849 25.07 26.1 79 33 8.6 47.6
09:55 1019 30.09 849 25.07 25.9 78.6 34 9.1 48.5
10:00 1019 30.09 849 25.07 25.8 78.4 34 9 48.2
10:05 1019 30.09 849 25.07 25.7 78.3 35 9.4 48.9
10:10 1019 30.09 849 25.07 25.8 78.5 36 9.7 49.4
10:15 1019 30.09 849 25.07 25.9 78.6 35 9.5 49.1
10:20 1019 30.09 849 25.07 25.9 78.6 34 8.9 48
10:25 1019 30.09 849 25.07 25.9 78.6 33 8.7 47.7
10:30 1019 30.09 849 25.07 26.3 79.3 33 9.1 48.4
10:35 1019 30.09 849 25.07 26.2 79.2 33 8.9 48
10:40 1019 30.09 848 25.04 26.4 79.5 33 9 48.1
10:45 1019 30.09 848 25.04 26 78.9 33 8.6 47.5
10:50 1019 30.09 848 25.04 26.6 79.8 31 8.5 47.2
10:55 1019 30.09 848 25.04 27 80.6 29 7.5 45.5
11:00 1019 30.09 848 25.04 27.1 80.8 29 8 46.5
11:05 1019 30.09 848 25.04 27.1 80.8 28 7.6 45.6
11:10 1019 30.09 848 25.04 28.2 82.8 27 7.5 45.6
11:15 1019 30.09 848 25.04 27.9 82.1 29 8.4 47.2
11:20 1019 30.09 848 25.04 26.7 80.1 30 8.1 46.7
11:25 1019 30.09 848 25.04 27.1 80.8 29 8 46.4
11:30 1019 30.09 848 25.04 26.9 80.3 31 8.7 47.6
11:35 1019 30.09 849 25.07 26.4 79.5 37 10.7 51.2
11:40 1019 30.09 848 25.04 24.1 75.3 52 13.6 56.6
11:45 1019 30.09 848 25.04 24.3 75.8 45 11.8 53.2
11:50 1019 30.09 848 25.04 25.4 77.7 40 10.9 51.6
11:55 1019 30.09 848 25.04 25.7 78.3 32 7.9 46.3
12:00 1019 30.09 848 25.04 26.5 79.8 32 8.5 47.4
12:05 1019 30.09 848 25.04 27.4 81.4 35 10.9 51.7
12:10 1019 30.09 848 25.04 28.1 82.6 30 9.3 48.7
12:15 1019 30.09 848 25.04 28 82.4 30 9 48.3
12:20 1019 30.09 848 25.04 27.6 81.7 30 8.5 47.4
12:25 1018 30.06 848 25.04 27.8 82.1 28 8 46.4
12:30 1018 30.06 848 25.04 28.2 82.8 28 8.1 46.6
12:35 1018 30.06 848 25.04 28.7 83.7 29 9.5 49
12:40 1018 30.06 848 25.04 28.1 82.5 31 9.8 49.7
12:45 1018 30.06 848 25.04 27.3 81.1 32 9.6 49.3
12:50 1018 30.06 848 25.04 26.8 80.2 31 8.4 47.1
12:55 1018 30.06 848 25.04 26.7 80.1 30 7.8 46
13:00 1018 30.06 848 25.04 27.5 81.5 28 7.7 45.8
13:05 1018 30.06 848 25.04 27.6 81.7 30 8.6 47.4
13:10 1019 30.09 848 25.04 27.9 82.1 29 8.3 46.9
13:15 1019 30.09 848 25.04 27.7 81.9 28 8.1 46.6
13:20 1019 30.09 848 25.04 27.5 81.4 30 8.5 47.3
13:25 1019 30.09 848 25.04 27.3 81.1 32 9.5 49.2
13:30 1019 30.09 848 25.04 26.8 80.3 30 8 46.5
13:35 1018 30.06 848 25.04 26.5 79.6 30 8 46.4
13:40 1018 30.06 848 25.04 26.7 80.1 29 7.4 45.3
13:45 1018 30.06 848 25.04 27.1 80.7 29 7.6 45.7
13:50 1018 30.06 848 25.04 27.1 80.7 31 8.8 47.8
13:55 1019 30.09 848 25.04 27.1 80.8 31 8.9 48
14:00 1019 30.09 848 25.04 26.9 80.4 34 9.8 49.7
14:05 1019 30.09 848 25.04 26.7 80 33 9.1 48.4
14:10 1019 30.09 848 25.04 26.8 80.2 32 9.2 48.5
14:15 1019 30.09 848 25.04 26.7 80 32 9 48.3
14:20 1019 30.09 849 25.07 26.6 79.8 33 9.2 48.5
14:25 1020 30.12 849 25.07 24.2 75.5 44 11.2 52.1
14:30 1020 30.12 849 25.07 21 69.7 56 12 53.6
14:35 1021 30.15 850 25.1 19.6 67.4 59 11.4 52.6
14:40 1021 30.15 850 25.1 19.7 67.5 59 11.6 52.8
14:45 1021 30.15 850 25.1 19.3 66.7 65 12.7 54.8
14:50 1021 30.15 851 25.13 18.5 65.2 75 13.9 57.1
14:55 1022 30.18 851 25.13 17.5 63.5 79 13.8 56.9
15:00 1022 30.18 851 25.13 16.9 62.5 79 13.4 56.1
15:05 1022 30.18 852 25.16 16.7 62.1 81 13.6 56.4
15:10 1023 30.21 852 25.16 16.7 62 83 13.7 56.7
15:15 1022 30.18 852 25.16 16.4 61.6 84 13.8 56.8
15:20 1022 30.18 852 25.16 16.2 61.2 85 13.8 56.8
15:25 1022 30.18 852 25.16 16.2 61.2 86 13.9 57
15:30 1022 30.18 851 25.13 16.2 61.1 85 13.7 56.6
15:35 1022 30.18 851 25.13 16.1 61 84 13.5 56.3
15:40 1022 30.18 851 25.13 16.1 61.1 85 13.6 56.5
15:45 1022 30.18 851 25.13 16.2 61.2 82 13.2 55.8
15:50 1022 30.18 851 25.13 16.3 61.4 81 13.1 55.6
15:55 1022 30.18 851 25.13 16.7 62 76 12.5 54.6
16:00 1022 30.18 851 25.13 16.6 61.9 81 13.3 56
16:05 1022 30.18 851 25.13 16.7 62.1 81 13.4 56.1
16:10 1022 30.18 851 25.13 16.8 62.2 81 13.6 56.5
16:15 1021 30.15 851 25.13 17 62.5 79 13.4 56.2
16:20 1021 30.15 850 25.1 17.2 63 77 13.2 55.8
16:25 1021 30.15 850 25.1 17.4 63.3 74 12.7 54.9
16:30 1021 30.15 850 25.1 17.6 63.7 72 12.6 54.7
16:35 1021 30.15 850 25.1 17.8 64 70 12.3 54.2
16:40 1021 30.15 850 25.1 17.8 64.1 72 12.7 54.9
16:45 1021 30.15 850 25.1 17.9 64.2 71 12.6 54.7
16:50 1021 30.15 850 25.1 18 64.4 72 12.9 55.2
16:55 1021 30.15 850 25.1 18 64.4 72 13 55.4
17:00 1021 30.15 850 25.1 18.1 64.6 72 13 55.5
17:05 1021 30.15 850 25.1 18.2 64.7 71 12.8 55.1
17:10 1020 30.12 850 25.1 18.2 64.7 70 12.7 54.9
17:15 1021 30.15 850 25.1 18.3 65 70 12.9 55.2
17:20 1021 30.15 850 25.1 18.4 65.2 68 12.6 54.7
17:25 1021 30.15 850 25.1 18.6 65.5 69 12.9 55.3
17:30 1021 30.15 850 25.1 18.5 65.3 70 13.1 55.5
17:35 1021 30.15 850 25.1 18.4 65.2 69 12.8 55
17:40 1021 30.15 850 25.1 18.5 65.3 70 12.9 55.3
17:45 1021 30.15 850 25.1 18.5 65.3 70 12.9 55.3
17:50 1021 30.15 850 25.1 18.6 65.4 68 12.7 54.9
17:55 1021 30.15 850 25.1 18.6 65.5 67 12.4 54.3
18:00 1021 30.15 850 25.1 18.7 65.7 69 12.9 55.3
18:05 1021 30.15 850 25.1 19 66.2 69 13.3 55.9
18:10 1021 30.15 850 25.1 19.1 66.5 69 13.4 56
18:15 1021 30.15 850 25.1 19.2 66.6 65 12.6 54.6
18:20 1021 30.15 850 25.1 19.5 67 68 13.6 56.5
18:25 1021 30.15 850 25.1 19.1 66.4 70 13.5 56.3
18:30 1021 30.15 850 25.1 18.8 65.9 72 13.6 56.6
18:35 1021 30.15 850 25.1 18.9 66 70 13.4 56.2
18:40 1021 30.15 850 25.1 19.1 66.3 71 13.8 56.9
18:45 1021 30.15 850 25.1 19.1 66.3 71 13.8 56.8
18:50 1021 30.15 850 25.1 19.1 66.4 70 13.6 56.5
18:55 1021 30.15 850 25.1 19.1 66.4 71 13.7 56.7
19:00 1021 30.15 850 25.1 19.1 66.3 71 13.7 56.6
19:05 1021 30.15 850 25.1 19 66.2 65 12.3 54.1
19:10 1021 30.15 850 25.1 18.9 66 71 13.5 56.3
19:15 1021 30.15 850 25.1 18.4 65.2 73 13.5 56.3
19:20 1021 30.15 850 25.1 18.5 65.2 72 13.3 56
19:25 1021 30.15 851 25.13 18.4 65 72 13.3 56
19:30 1021 30.15 851 25.13 18.1 64.6 72 13.1 55.6
19:35 1021 30.15 850 25.1 18.2 64.8 73 13.4 56.1
19:40 1021 30.15 850 25.1 18.2 64.7 74 13.5 56.4
19:45 1021 30.15 851 25.13 18.1 64.6 73 13.1 55.7
19:50 1021 30.15 851 25.13 18.2 64.7 73 13.4 56.1
19:55 1021 30.15 851 25.13 18.1 64.6 75 13.6 56.5
20:00 1022 30.18 851 25.13 17.9 64.2 75 13.5 56.4
20:05 1022 30.18 851 25.13 17.9 64.1 75 13.5 56.3
20:10 1022 30.18 851 25.13 17.7 63.8 77 13.5 56.4
20:15 1022 30.18 851 25.13 17.5 63.5 76 13.4 56.1
20:20 1022 30.18 851 25.13 17.3 63.2 77 13.2 55.8
20:25 1022 30.18 851 25.13 17.1 62.7 79 13.3 56
20:30 1022 30.18 851 25.13 17 62.6 78 13.1 55.6
20:35 1022 30.18 851 25.13 17.2 62.9 75 12.6 54.8
20:40 1022 30.18 851 25.13 17.1 62.7 78 13.3 56
20:45 1022 30.18 851 25.13 16.9 62.3 78 13 55.5
20:50 1022 30.18 851 25.13 16.4 61.5 80 12.9 55.3
20:55 1022 30.18 851 25.13 16.2 61.1 78 12.3 54.1
21:00 1022 30.18 851 25.13 16.4 61.5 76 12.3 54.1
21:05 1022 30.18 851 25.13 16.5 61.6 75 12.1 53.9
21:10 1022 30.18 851 25.13 16.5 61.7 75 12.1 53.7
21:15 1022 30.18 851 25.13 16.6 61.9 74 12.1 53.7
21:20 1022 30.18 851 25.13 16.6 62 75 12.2 54
21:25 1022 30.18 851 25.13 16.5 61.6 76 12.3 54.1
21:30 1022 30.18 851 25.13 16.2 61.2 76 12.1 53.8
21:35 1022 30.18 851 25.13 16 60.8 77 12 53.5
21:40 1022 30.18 851 25.13 15.9 60.6 76 11.7 53.1
21:45 1022 30.18 851 25.13 16.2 61.1 73 11.4 52.6
21:50 1022 30.18 851 25.13 16.3 61.3 74 11.6 52.9
21:55 1022 30.18 851 25.13 16.2 61.1 74 11.5 52.7
22:00 1022 30.18 851 25.13 16.2 61.2 72 11.1 52
22:05 1022 30.18 851 25.13 16.5 61.7 70 11.1 51.9
22:10 1022 30.18 851 25.13 16.6 61.9 70 11.2 52.2
22:15 1022 30.18 851 25.13 16.4 61.4 71 11.1 51.9
22:20 1022 30.18 851 25.13 16.2 61.2 71 11 51.9
22:25 1022 30.18 851 25.13 16.1 61 73 11.2 52.2
22:30 1022 30.18 851 25.13 16.1 60.9 71 10.9 51.6
22:35 1022 30.18 851 25.13 16 60.8 70 10.6 51.1
22:40 1022 30.18 851 25.13 15.9 60.6 71 10.7 51.3
22:45 1022 30.18 851 25.13 15.7 60.2 70 10.3 50.6
22:50 1022 30.18 851 25.13 15.6 60.1 71 10.4 50.7
22:55 1022 30.18 851 25.13 15.7 60.3 70 10.2 50.4
23:00 1022 30.18 851 25.13 15.9 60.5 69 10.2 50.3
23:05 1022 30.18 851 25.13 15.7 60.3 68 9.9 49.8
23:10 1022 30.18 851 25.13 15.6 60.1 68 9.8 49.7
23:15 1022 30.18 851 25.13 15.7 60.3 66 9.5 49.1
23:20 1022 30.18 851 25.13 15.9 60.6 66 9.7 49.5
23:25 1022 30.18 851 25.13 15.6 60.1 67 9.5 49
23:30 1022 30.18 851 25.13 15.5 59.9 66 9.3 48.7
23:35 1022 30.18 851 25.13 15.6 60 65 9.1 48.5
23:40 1022 30.18 851 25.13 15.7 60.2 65 9.1 48.3
23:45 1022 30.18 851 25.13 15.6 60.1 65 9.2 48.5
23:50 1022 30.18 851 25.13 15.7 60.2 66 9.4 49
23:55 1022 30.18 851 25.13 16 60.8 64 9.2 48.5
24:00 1022 30.18 851 25.13 16.1 61 63 9.1 48.3